Time;durP1;ratioP1;P1;durP2;ratioP2;P2;SDS_P1;SDS_P2;PMS_P1;PMS_P2;Temp;Humidity;BMP_temperature;BMP_pressure;BME280_temperature;BME280_humidity;BME280_pressure;Samples;Min_cycle;Max_cycle;Signal;HPM_P1;HPM_P2
2023/09/27 00:00:32;;;;;;;7.10;6.25;;;;;;;;;;5078069;28;20052;-67
2023/09/27 00:02:58;;;;;;;7.38;5.90;;;;;;;;;;5078166;28;20016;-67
2023/09/27 00:05:24;;;;;;;11.52;6.90;;;;;;;;;;5076221;28;20081;-70
2023/09/27 00:07:53;;;;;;;7.70;6.60;;;;;;;;;;5081163;28;20059;-66
2023/09/27 00:10:19;;;;;;;7.65;6.20;;;;;;;;;;5065606;28;20112;-66
2023/09/27 00:12:46;;;;;;;7.50;5.78;;;;;;;;;;5087843;28;20032;-66
2023/09/27 00:15:12;;;;;;;6.60;5.90;;;;;;;;;;5078721;28;20035;-66
2023/09/27 00:17:39;;;;;;;7.68;5.97;;;;;;;;;;5087914;28;20031;-66
2023/09/27 00:20:09;;;;;;;8.60;6.18;;;;;;;;;;5090845;28;20024;-67
2023/09/27 00:22:36;;;;;;;11.10;6.63;;;;;;;;;;5077327;28;20020;-66
2023/09/27 00:25:04;;;;;;;8.48;6.28;;;;;;;;;;5080845;28;20142;-66
2023/09/27 00:27:30;;;;;;;8.30;5.60;;;;;;;;;;5071025;28;20377;-66
2023/09/27 00:29:56;;;;;;;8.30;5.88;;;;;;;;;;5077848;28;20024;-66
2023/09/27 00:32:22;;;;;;;8.75;5.20;;;;;;;;;;5073598;28;20461;-66
2023/09/27 00:34:48;;;;;;;8.02;5.57;;;;;;;;;;5083105;28;20013;-66
2023/09/27 00:37:14;;;;;;;6.57;5.50;;;;;;;;;;5084456;28;20081;-72
2023/09/27 00:39:41;;;;;;;8.20;5.78;;;;;;;;;;5074558;28;20031;-66
2023/09/27 00:42:07;;;;;;;7.60;5.28;;;;;;;;;;5084775;28;20012;-66
2023/09/27 00:44:34;;;;;;;9.43;5.35;;;;;;;;;;5080641;28;20504;-66
2023/09/27 00:47:01;;;;;;;6.97;5.10;;;;;;;;;;5098627;28;20504;-66
2023/09/27 00:49:27;;;;;;;7.43;5.68;;;;;;;;;;5096370;28;20028;-66
2023/09/27 00:51:53;;;;;;;5.80;4.78;;;;;;;;;;5100500;28;20023;-66
2023/09/27 00:54:19;;;;;;;7.47;5.53;;;;;;;;;;5096553;28;20077;-67
2023/09/27 00:56:47;;;;;;;12.80;5.60;;;;;;;;;;5096631;28;20099;-67
2023/09/27 00:59:14;;;;;;;6.28;4.88;;;;;;;;;;5100488;28;20067;-72
2023/09/27 01:01:41;;;;;;;6.63;5.70;;;;;;;;;;5100262;28;20031;-66
2023/09/27 01:04:08;;;;;;;6.80;5.53;;;;;;;;;;5097322;28;20024;-66
2023/09/27 01:06:34;;;;;;;6.43;5.72;;;;;;;;;;5096750;28;20032;-66
2023/09/27 01:09:00;;;;;;;6.13;5.53;;;;;;;;;;5104152;28;20082;-66
2023/09/27 01:11:27;;;;;;;9.30;6.93;;;;;;;;;;5109466;28;20024;-66
2023/09/27 01:13:53;;;;;;;6.50;5.75;;;;;;;;;;5100164;28;20024;-66
2023/09/27 01:16:19;;;;;;;7.22;5.88;;;;;;;;;;5101883;28;20031;-67
2023/09/27 01:18:45;;;;;;;7.05;6.15;;;;;;;;;;5102845;28;20012;-66
2023/09/27 01:21:11;;;;;;;7.22;5.93;;;;;;;;;;5104321;28;20028;-66
2023/09/27 01:23:39;;;;;;;7.57;6.18;;;;;;;;;;5098019;28;20027;-67
2023/09/27 01:26:07;;;;;;;6.88;6.05;;;;;;;;;;5105872;28;20030;-66
2023/09/27 01:28:34;;;;;;;6.70;5.55;;;;;;;;;;5104867;28;20127;-66
2023/09/27 01:31:00;;;;;;;10.23;5.93;;;;;;;;;;5092267;28;20051;-66
2023/09/27 01:33:26;;;;;;;6.43;5.75;;;;;;;;;;5096946;28;20484;-66
2023/09/27 01:35:54;;;;;;;6.55;5.55;;;;;;;;;;5075599;28;20032;-66
2023/09/27 01:38:20;;;;;;;6.47;5.88;;;;;;;;;;5106671;28;20016;-68
2023/09/27 01:40:46;;;;;;;7.18;6.13;;;;;;;;;;5097309;28;20034;-68
2023/09/27 01:43:12;;;;;;;7.03;5.75;;;;;;;;;;5104095;28;20468;-66
2023/09/27 01:45:38;;;;;;;5.72;5.20;;;11.50;99.90;;;;;;5109254;28;20028;-66
2023/09/27 01:48:04;;;;;;;7.38;5.60;;;11.70;99.90;;;;;;5100316;28;20110;-66
2023/09/27 01:50:32;;;;;;;8.70;6.40;;;11.60;99.90;;;;;;5090514;28;20028;-66
2023/09/27 01:52:58;;;;;;;7.15;6.32;;;11.50;99.90;;;;;;5104500;28;20054;-67
2023/09/27 01:55:25;;;;;;;6.25;5.65;;;11.40;99.90;;;;;;5091553;28;20108;-66
2023/09/27 01:57:50;;;;;;;6.35;5.75;;;11.30;99.90;;;;;;5100603;28;20032;-66
2023/09/27 02:00:18;;;;;;;7.18;6.20;;;11.30;99.90;;;;;;5105079;28;20030;-72
2023/09/27 02:02:45;;;;;;;6.57;5.88;;;11.20;99.90;;;;;;5104052;28;20530;-67
2023/09/27 02:05:11;;;;;;;7.07;5.90;;;11.20;99.90;;;;;;5091628;28;20024;-66
2023/09/27 02:07:41;;;;;;;6.60;5.85;;;11.20;99.90;;;;;;5094462;28;20047;-66
2023/09/27 02:10:11;;;;;;;7.20;6.10;;;11.20;99.90;;;;;;5093229;28;20025;-66
2023/09/27 02:12:37;;;;;;;7.63;6.38;;;11.20;99.90;;;;;;5103587;28;20527;-67
2023/09/27 02:15:04;;;;;;;7.35;5.25;;;11.10;99.90;;;;;;5096423;28;20103;-66
2023/09/27 02:17:29;;;;;;;6.18;5.57;;;11.10;99.90;;;;;;5105958;28;20031;-66
2023/09/27 02:19:55;;;;;;;7.97;5.90;;;11.10;99.90;;;;;;5109779;28;20031;-67
2023/09/27 02:22:21;;;;;;;9.52;7.20;;;11.10;99.90;;;;;;5098165;28;20024;-67
2023/09/27 02:24:47;;;;;;;7.75;5.43;;;11.10;99.90;;;;;;5093449;28;20039;-66
2023/09/27 02:27:14;;;;;;;6.35;5.70;;;11.10;99.90;;;;;;5105501;28;20387;-66
2023/09/27 02:29:42;;;;;;;6.70;5.78;;;11.10;99.90;;;;;;5094804;28;20468;-67
2023/09/27 02:32:08;;;;;;;8.55;6.40;;;11.10;99.90;;;;;;5102535;28;20034;-66
2023/09/27 02:34:37;;;;;;;9.38;7.28;;;11.10;99.90;;;;;;5104945;28;20092;-66
2023/09/27 02:37:03;;;;;;;7.93;6.18;;;11.10;99.90;;;;;;5093924;28;20114;-66
2023/09/27 02:39:29;;;;;;;9.60;6.10;;;11.20;99.90;;;;;;5096877;28;20103;-67
2023/09/27 02:41:57;;;;;;;8.85;6.80;;;11.10;99.90;;;;;;5101061;28;20454;-66
2023/09/27 02:44:24;;;;;;;6.70;5.85;;;11.20;99.90;;;;;;5106126;28;20464;-67
2023/09/27 02:46:55;;;;;;;8.85;6.30;;;11.10;99.90;;;;;;5109993;28;20089;-66
2023/09/27 02:49:21;;;;;;;7.60;6.05;;;11.10;99.90;;;;;;5098891;28;20071;-66
2023/09/27 02:51:51;;;;;;;6.88;6.18;;;11.10;99.90;;;;;;5101916;28;20130;-66
2023/09/27 02:54:17;;;;;;;7.65;6.47;;;11.10;99.90;;;;;;5099586;28;20043;-73
2023/09/27 02:56:43;;;;;;;11.45;7.22;;;11.00;99.90;;;;;;5096770;28;20097;-66
2023/09/27 02:59:11;;;;;;;11.52;7.20;;;11.00;99.90;;;;;;5093306;28;20021;-66
2023/09/27 03:01:40;;;;;;;6.53;5.88;;;11.00;99.90;;;;;;5111502;28;20492;-67
2023/09/27 03:04:10;;;;;;;7.05;6.18;;;10.90;99.90;;;;;;5099532;28;20036;-66
2023/09/27 03:06:37;;;;;;;7.63;6.65;;;10.90;99.90;;;;;;5100342;28;20287;-66
2023/09/27 03:09:04;;;;;;;9.20;7.05;;;10.80;99.90;;;;;;5107041;28;20072;-67
2023/09/27 03:11:30;;;;;;;7.93;6.85;;;10.90;99.90;;;;;;5113423;28;20027;-66
2023/09/27 03:13:56;;;;;;;11.05;6.97;;;10.90;99.90;;;;;;5103313;28;20472;-66
2023/09/27 03:16:21;;;;;;;8.55;7.45;;;10.90;99.90;;;;;;5087529;28;20056;-66
2023/09/27 03:18:47;;;;;;;9.68;7.35;;;11.00;99.90;;;;;;5110671;28;20031;-66
2023/09/27 03:21:13;;;;;;;8.15;6.97;;;11.10;99.90;;;;;;5106016;28;20032;-66
2023/09/27 03:23:38;;;;;;;9.10;6.45;;;11.20;99.90;;;;;;5102387;28;20102;-66
2023/09/27 03:26:04;;;;;;;8.27;5.75;;;11.20;99.90;;;;;;5112840;28;20035;-66
2023/09/27 03:28:30;;;;;;;10.13;7.53;;;11.20;99.90;;;;;;5109441;28;20388;-66
2023/09/27 03:30:56;;;;;;;9.07;6.93;;;11.10;99.90;;;;;;5095791;28;20475;-67
2023/09/27 03:33:21;;;;;;;8.20;6.18;;;11.20;99.90;;;;;;5095327;28;20032;-66
2023/09/27 03:35:47;;;;;;;8.25;6.07;;;11.10;99.90;;;;;;5109523;28;20027;-66
2023/09/27 03:38:13;;;;;;;8.60;6.53;;;11.10;99.90;;;;;;5112814;28;20406;-70
2023/09/27 03:40:41;;;;;;;8.13;5.95;;;11.10;99.90;;;;;;5080223;28;20024;-66
2023/09/27 03:43:07;;;;;;;6.28;5.68;;;11.00;99.90;;;;;;5104491;28;20111;-66
2023/09/27 03:45:34;;;;;;;8.50;6.32;;;11.00;99.90;;;;;;5110424;28;20774;-67
2023/09/27 03:47:59;;;;;;;7.65;6.50;;;11.00;99.90;;;;;;5101657;28;20043;-66
2023/09/27 03:50:25;;;;;;;11.55;6.40;;;11.00;99.90;;;;;;5092961;28;20028;-67
2023/09/27 03:52:55;;;;;;;7.15;6.28;;;11.10;99.90;;;;;;5106120;28;20032;-66
2023/09/27 03:55:20;;;;;;;7.03;6.00;;;11.10;99.90;;;;;;5093526;28;20025;-66
2023/09/27 03:57:46;;;;;;;6.65;5.65;;;11.00;99.90;;;;;;5095479;28;20188;-67
2023/09/27 04:00:14;;;;;;;7.00;6.30;;;11.00;99.90;;;;;;5095073;28;20032;-66
2023/09/27 04:02:40;;;;;;;7.63;6.40;;;10.90;99.90;;;;;;5092554;28;20107;-66
2023/09/27 04:05:06;;;;;;;7.15;5.93;;;10.80;99.90;;;;;;5092736;28;20016;-66
2023/09/27 04:07:32;;;;;;;7.75;6.85;;;10.70;99.90;;;;;;5093814;28;20036;-66
2023/09/27 04:09:58;;;;;;;8.50;6.15;;;10.70;99.90;;;;;;5093222;28;20039;-66
2023/09/27 04:12:23;;;;;;;9.02;6.78;;;10.70;99.90;;;;;;5096196;28;20019;-67
2023/09/27 04:14:49;;;;;;;8.00;7.20;;;10.70;99.90;;;;;;5091406;28;20028;-67
2023/09/27 04:17:14;;;;;;;9.35;7.38;;;10.70;99.90;;;;;;5107613;28;21413;-73
2023/09/27 04:19:40;;;;;;;9.10;8.10;;;10.70;99.90;;;;;;5092234;28;20042;-67
2023/09/27 04:22:06;;;;;;;9.30;7.70;;;10.80;99.90;;;;;;5095703;28;20016;-66
2023/09/27 04:24:31;;;;;;;9.35;7.20;;;10.90;99.90;;;;;;5092534;28;20024;-66
2023/09/27 04:26:58;;;;;;;8.50;6.97;;;10.90;99.90;;;;;;5094817;28;20100;-66
2023/09/27 04:29:24;;;;;;;9.52;6.80;;;10.90;99.90;;;;;;5091794;28;20024;-66
2023/09/27 04:31:50;;;;;;;7.43;6.63;;;10.80;99.90;;;;;;5093599;28;20483;-66
2023/09/27 04:34:17;;;;;;;8.48;7.65;;;10.80;99.90;;;;;;5092875;28;20677;-73
2023/09/27 04:36:44;;;;;;;12.27;7.85;;;10.80;99.90;;;;;;5094871;28;20023;-66
2023/09/27 04:39:12;;;;;;;7.55;6.13;;;10.80;99.90;;;;;;5095042;28;20024;-67
2023/09/27 04:41:38;;;;;;;9.65;6.97;;;10.70;99.90;;;;;;5091643;28;20058;-67
2023/09/27 04:44:05;;;;;;;9.13;7.50;;;10.70;99.90;;;;;;5092142;28;20055;-67
2023/09/27 04:46:32;;;;;;;10.43;6.85;;;10.70;99.90;;;;;;5084667;28;20048;-67
2023/09/27 04:48:58;;;;;;;7.25;6.55;;;10.70;99.90;;;;;;5076162;28;20025;-68
2023/09/27 04:51:24;;;;;;;8.55;7.45;;;10.60;99.90;;;;;;5065316;28;20070;-69
2023/09/27 04:53:50;;;;;;;10.48;7.47;;;10.60;99.90;;;;;;5047130;28;20435;-67
2023/09/27 04:56:16;;;;;;;14.07;7.40;;;10.60;99.90;;;;;;5064563;28;20039;-73
2023/09/27 04:58:41;;;;;;;8.50;6.78;;;10.50;99.90;;;;;;5067055;28;20396;-67
2023/09/27 05:01:07;;;;;;;7.65;6.85;;;10.50;99.90;;;;;;5085953;28;20389;-66
2023/09/27 05:03:33;;;;;;;8.70;7.07;;;10.50;99.90;;;;;;5090199;28;20089;-66
2023/09/27 05:05:58;;;;;;;7.68;6.85;;;10.40;99.90;;;;;;5060356;28;20028;-66
2023/09/27 05:08:27;;;;;;;8.02;6.70;;;;;;;;;;5082437;28;20024;-65
2023/09/27 05:10:54;;;;;;;10.45;7.10;;;;;;;;;;5088259;28;20024;-65
2023/09/27 05:13:21;;;;;;;12.68;7.13;;;;;;;;;;5081361;28;20047;-66
2023/09/27 05:16:00;;;;;;;10.65;7.45;;;;;;;;;;5070191;28;20024;-66
2023/09/27 05:18:36;;;;;;;8.55;6.72;;;;;;;;;;5084012;28;20074;-67
2023/09/27 05:21:06;;;;;;;8.77;6.95;;;;;;;;;;5072627;28;20095;-65
2023/09/27 05:23:32;;;;;;;9.23;7.57;;;;;;;;;;5080382;28;20016;-65
2023/09/27 05:25:58;;;;;;;10.43;7.60;;;;;;;;;;5085493;28;20254;-65
2023/09/27 05:28:26;;;;;;;7.63;6.78;;;;;;;;;;5086468;28;20039;-67
2023/09/27 05:30:52;;;;;;;8.25;7.05;;;;;;;;;;5072018;28;20029;-65
2023/09/27 05:33:24;;;;;;;9.35;8.38;;;;;;;;;;5077907;28;20542;-71
2023/09/27 05:36:06;;;;;;;8.85;7.30;;;;;;;;;;5078121;28;20028;-67
2023/09/27 05:38:34;;;;;;;13.02;8.50;;;;;;;;;;5085895;28;20032;-66
2023/09/27 05:41:20;;;;;;;10.38;8.15;;;;;;;;;;5077173;28;20183;-69
2023/09/27 05:43:59;;;;;;;10.98;8.50;;;;;;;;;;5078432;28;20027;-67
2023/09/27 05:46:36;;;;;;;11.40;8.07;;;;;;;;;;5095338;28;20056;-67
2023/09/27 05:49:09;;;;;;;9.38;8.32;;;;;;;;;;5087597;28;20537;-67
2023/09/27 05:51:39;;;;;;;10.40;8.07;;;;;;;;;;5096115;28;20093;-66
2023/09/27 05:54:08;;;;;;;11.75;8.45;;;;;;;;;;5097245;28;20119;-66
2023/09/27 05:56:37;;;;;;;9.48;7.25;;;;;;;;;;5096431;28;20023;-64
2023/09/27 05:59:08;;;;;;;10.30;7.55;;;;;;;;;;5099605;28;20024;-65
2023/09/27 06:01:39;;;;;;;10.02;7.30;;;;;;;;;;5111029;28;20035;-67
2023/09/27 06:04:08;;;;;;;8.80;7.68;;;;;;;;;;5100811;28;20071;-65
2023/09/27 06:06:39;;;;;;;9.32;7.50;;;;;;;;;;5099825;28;20106;-65
2023/09/27 06:09:09;;;;;;;8.68;7.78;;;;;;;;;;5108659;28;20525;-65
2023/09/27 06:11:36;;;;;;;10.15;7.13;;;;;;;;;;5114060;28;20019;-66
2023/09/27 06:14:10;;;;;;;9.52;7.55;;;;;;;;;;5104998;28;20073;-65
2023/09/27 06:16:36;;;;;;;9.38;7.45;;;;;;;;;;5104240;28;20023;-65
2023/09/27 06:19:04;;;;;;;9.40;6.53;;;;;;;;;;5112660;28;20023;-65
2023/09/27 06:21:31;;;;;;;8.98;7.13;;;;;;;;;;5103964;28;20070;-65
2023/09/27 06:23:57;;;;;;;9.40;7.53;;;11.70;99.90;;;;;;5095445;28;20059;-65
2023/09/27 06:26:23;;;;;;;9.35;7.53;;;11.80;99.90;;;;;;5108778;28;20051;-66
2023/09/27 06:28:48;;;;;;;13.45;7.95;;;11.80;99.90;;;;;;5109139;28;20388;-65
2023/09/27 06:31:14;;;;;;;9.75;7.03;;;11.90;99.90;;;;;;5096424;28;20028;-70
2023/09/27 06:33:40;;;;;;;10.07;7.78;;;12.00;99.90;;;;;;5107659;28;20384;-65
2023/09/27 06:36:07;;;;;;;13.23;8.13;;;12.10;99.90;;;;;;5112689;28;20055;-65
2023/09/27 06:38:33;;;;;;;8.20;7.15;;;12.10;99.90;;;;;;5097978;28;20027;-65
2023/09/27 06:40:59;;;;;;;9.02;6.72;;;12.20;99.90;;;;;;5100305;28;20024;-65
2023/09/27 06:43:28;;;;;;;9.95;6.88;;;12.30;99.90;;;;;;5109011;28;20419;-65
2023/09/27 06:45:54;;;;;;;7.53;6.72;;;12.30;99.90;;;;;;5114276;28;20039;-66
2023/09/27 06:48:20;;;;;;;9.45;7.05;;;12.40;99.90;;;;;;5102301;28;20434;-68
2023/09/27 06:50:47;;;;;;;7.50;6.40;;;12.40;99.90;;;;;;5090192;28;20437;-65
2023/09/27 06:53:13;;;;;;;7.45;5.80;;;12.50;99.90;;;;;;5107381;28;20016;-65
2023/09/27 06:55:39;;;;;;;12.27;6.35;;;12.60;99.90;;;;;;5095272;28;20020;-66
2023/09/27 06:58:05;;;;;;;10.38;6.75;;;12.70;99.90;;;;;;5091668;28;20031;-65
2023/09/27 07:00:31;;;;;;;8.30;6.50;;;12.80;99.90;;;;;;5105170;28;20015;-64
2023/09/27 07:02:56;;;;;;;8.02;6.78;;;12.90;99.90;;;;;;5108243;28;20024;-65
2023/09/27 07:05:23;;;;;;;16.10;7.15;;;13.10;99.90;;;;;;5093963;28;20073;-65
2023/09/27 07:07:49;;;;;;;8.20;6.35;;;13.20;99.90;;;;;;5107171;28;20476;-64
2023/09/27 07:10:15;;;;;;;9.05;7.18;;;13.30;99.90;;;;;;5109816;28;20114;-70
2023/09/27 07:12:41;;;;;;;8.98;6.90;;;13.40;99.90;;;;;;5106699;28;20123;-64
2023/09/27 07:15:12;;;;;;;11.57;8.00;;;13.60;99.90;;;;;;5091876;28;20027;-64
2023/09/27 07:17:39;;;;;;;10.15;8.45;;;13.70;99.90;;;;;;5091088;28;20024;-65
2023/09/27 07:20:23;;;;;;;12.95;7.03;;;13.80;99.90;;;;;;5112550;28;20031;-64
2023/09/27 07:22:48;;;;;;;9.70;6.70;;;14.00;99.90;;;;;;5088948;28;20534;-64
2023/09/27 07:25:19;;;;;;;14.20;7.82;;;14.00;99.90;;;;;;5104813;28;20027;-70
2023/09/27 07:27:50;;;;;;;10.30;7.63;;;14.10;99.90;;;;;;5112083;28;20081;-65
2023/09/27 07:30:23;;;;;;;12.15;6.65;;;14.20;99.90;;;;;;5097688;28;20039;-68
2023/09/27 07:32:49;;;;;;;10.75;7.30;;;14.20;99.90;;;;;;5101290;28;20105;-63
2023/09/27 07:35:18;;;;;;;10.93;6.85;;;14.30;99.90;;;;;;5104152;28;20063;-69
2023/09/27 07:37:44;;;;;;;11.18;6.22;;;14.40;99.90;;;;;;5094257;28;20035;-63
2023/09/27 07:40:11;;;;;;;9.40;6.63;;;14.50;99.90;;;;;;5103324;28;20111;-64
2023/09/27 07:42:44;;;;;;;10.43;7.35;;;14.60;99.90;;;;;;5103519;28;20313;-65
2023/09/27 07:45:21;;;;;;;8.75;6.35;;;14.80;99.90;;;;;;5080671;28;20119;-65
2023/09/27 07:47:51;;;;;;;11.57;5.80;;;14.90;99.90;;;;;;5097020;28;20059;-64
2023/09/27 07:50:18;;;;;;;9.60;6.22;;;15.00;99.90;;;;;;5096356;28;20031;-69
2023/09/27 07:52:44;;;;;;;10.05;6.70;;;15.20;99.90;;;;;;5101625;28;20496;-64
2023/09/27 07:55:14;;;;;;;10.55;6.40;;;;;;;;;;5093692;28;20405;-64
2023/09/27 07:57:43;;;;;;;12.07;6.43;;;;;;;;;;5099426;28;20103;-65
2023/09/27 08:00:10;;;;;;;7.33;5.90;;;;;;;;;;5106449;28;20048;-65
2023/09/27 08:02:38;;;;;;;6.45;5.68;;;15.90;99.90;;;;;;5109394;28;20023;-65
2023/09/27 08:05:10;;;;;;;9.73;5.78;;;;;;;;;;5096399;28;20081;-66
2023/09/27 08:07:37;;;;;;;6.85;5.70;;;15.80;99.90;;;;;;5101149;28;20023;-66
2023/09/27 08:10:03;;;;;;;10.52;5.60;;;15.90;99.90;;;;;;5110030;28;20406;-65
2023/09/27 08:12:31;;;;;;;8.60;5.78;;;16.10;99.90;;;;;;5097185;28;20050;-63
2023/09/27 08:14:58;;;;;;;8.70;6.25;;;16.10;99.90;;;;;;5098722;28;20456;-65
2023/09/27 08:17:24;;;;;;;11.98;5.63;;;16.20;99.90;;;;;;5104148;28;20023;-65
2023/09/27 08:19:49;;;;;;;10.35;5.20;;;16.40;99.90;;;;;;5101379;28;20035;-65
2023/09/27 08:22:15;;;;;;;9.10;5.72;;;16.40;99.90;;;;;;5091555;28;20028;-70
2023/09/27 08:24:41;;;;;;;9.00;5.45;;;16.50;99.90;;;;;;5083668;28;20036;-65
2023/09/27 08:27:07;;;;;;;10.50;5.20;;;16.70;99.90;;;;;;5110906;28;20028;-66
2023/09/27 08:29:32;;;;;;;8.90;4.97;;;16.80;99.90;;;;;;5101697;28;20049;-65
2023/09/27 08:31:58;;;;;;;13.07;5.32;;;16.90;99.90;;;;;;5093878;28;20465;-63
2023/09/27 08:34:25;;;;;;;13.93;4.93;;;17.10;99.90;;;;;;5103204;28;20028;-66
2023/09/27 08:36:52;;;;;;;8.38;5.30;;;17.10;99.90;;;;;;5094536;28;20028;-65
2023/09/27 08:39:18;;;;;;;8.10;5.03;;;17.20;99.90;;;;;;5081921;28;20465;-71
2023/09/27 08:41:43;;;;;;;9.30;4.88;;;17.30;99.90;;;;;;5102326;28;20031;-65
2023/09/27 08:44:11;;;;;;;9.23;5.15;;;17.40;99.90;;;;;;5089473;28;20431;-64
2023/09/27 08:46:38;;;;;;;7.88;5.03;;;;;;;;;;5094547;28;20062;-64
2023/09/27 08:49:04;;;;;;;7.20;4.63;;;;;;;;;;5092518;28;20028;-64
2023/09/27 08:51:30;;;;;;;6.90;4.15;;;;;;;;;;5095589;28;20063;-64
2023/09/27 08:53:56;;;;;;;6.00;3.70;;;;;;;;;;5098894;28;20074;-65
2023/09/27 08:56:27;;;;;;;7.40;4.25;;;;;;;;;;5097729;28;20051;-64
2023/09/27 08:58:55;;;;;;;7.90;4.45;;;;;;;;;;5099814;28;20032;-65
2023/09/27 09:01:21;;;;;;;6.50;3.55;;;;;;;;;;5092389;28;20044;-65
2023/09/27 09:03:47;;;;;;;6.30;3.70;;;;;;;;;;5092232;28;20058;-66
2023/09/27 09:06:15;;;;;;;8.77;3.70;;;;;;;;;;5093207;28;20056;-65
2023/09/27 09:08:46;;;;;;;7.50;3.90;;;;;;;;;;5098696;28;20032;-65
2023/09/27 09:11:13;;;;;;;7.90;3.65;;;;;;;;;;5092766;28;20030;-65
2023/09/27 09:13:56;;;;;;;5.63;3.42;;;;;;;;;;5083973;28;20020;-65
2023/09/27 09:16:23;;;;;;;5.28;3.83;;;;;;;;;;5103511;28;20108;-66
2023/09/27 09:18:54;;;;;;;8.63;4.20;;;;;;;;;;5108101;28;20024;-65
2023/09/27 09:21:20;;;;;;;5.38;3.50;;;;;;;;;;5101898;28;20542;-66
2023/09/27 09:23:49;;;;;;;4.35;3.08;;;;;;;;;;5102593;28;20028;-65
2023/09/27 09:26:28;;;;;;;6.50;3.40;;;;;;;;;;5099225;28;20484;-71
2023/09/27 09:28:56;;;;;;;7.65;3.40;;;;;;;;;;5079399;28;20036;-66
2023/09/27 09:31:26;;;;;;;6.65;3.40;;;;;;;;;;5091796;28;20023;-66
2023/09/27 09:34:08;;;;;;;4.40;2.95;;;;;;;;;;5105813;28;20024;-67
2023/09/27 09:36:35;;;;;;;3.38;2.70;;;;;;;;;;5104919;28;20047;-66
2023/09/27 09:39:05;;;;;;;6.85;3.35;;;20.90;99.90;;;;;;5092427;28;20103;-67
2023/09/27 09:41:47;;;;;;;5.75;3.88;;;21.10;99.90;;;;;;5095197;28;20046;-65
2023/09/27 09:44:24;;;;;;;6.43;3.92;;;21.20;99.90;;;;;;5102638;28;20407;-69
2023/09/27 09:46:53;;;;;;;4.35;3.47;;;21.30;99.90;;;;;;5087651;28;20080;-66
2023/09/27 09:49:21;;;;;;;7.23;3.80;;;21.40;99.90;;;;;;5091353;28;20119;-66
2023/09/27 09:51:48;;;;;;;5.45;3.67;;;21.40;99.90;;;;;;5097422;28;20709;-65
2023/09/27 09:54:49;;;;;;;8.05;3.92;;;21.50;99.90;;;;;;5096891;28;20032;-71
2023/09/27 09:57:19;;;;;;;5.80;3.72;;;21.50;99.90;;;;;;5081498;28;20097;-70
2023/09/27 09:59:55;;;;;;;6.28;3.90;;;21.60;99.90;;;;;;5097433;28;20034;-65
2023/09/27 10:02:27;;;;;;;3.35;3.00;;;21.70;99.90;;;;;;5108068;28;20106;-66
2023/09/27 10:04:55;;;;;;;7.55;3.40;;;21.80;99.90;;;;;;5090698;28;20030;-65
2023/09/27 10:07:22;;;;;;;6.53;3.45;;;21.80;99.90;;;;;;5100626;28;20077;-66
2023/09/27 10:09:49;;;;;;;3.90;3.00;;;21.90;99.90;;;;;;5091009;28;20036;-66
2023/09/27 10:12:17;;;;;;;4.63;2.78;;;21.90;99.90;;;;;;5104033;28;20040;-71
2023/09/27 10:14:44;;;;;;;5.07;3.08;;;21.90;99.90;;;;;;5082451;28;20059;-66
2023/09/27 10:17:25;;;;;;;3.65;2.60;;;22.00;99.90;;;;;;5101048;28;20077;-65
2023/09/27 10:20:05;;;;;;;5.10;3.33;;;22.20;99.90;;;;;;5110415;28;20040;-66
2023/09/27 10:22:31;;;;;;;5.22;3.50;;;22.20;99.90;;;;;;5094838;28;20035;-66
2023/09/27 10:24:57;;;;;;;4.22;2.95;;;22.40;99.90;;;;;;5089037;28;20027;-67
2023/09/27 10:27:59;;;;;;;6.65;3.03;;;22.50;99.90;;;;;;5091205;28;20028;-67
2023/09/27 10:30:26;;;;;;;4.32;3.13;;;22.70;99.90;;;;;;5093378;28;20502;-64
2023/09/27 10:33:28;;;;;;;3.78;2.70;;;22.80;99.90;;;;;;5097205;28;20032;-64
2023/09/27 10:36:02;;;;;;;10.73;3.60;;;22.80;99.90;;;;;;5073460;28;20421;-66
2023/09/27 10:38:43;;;;;;;8.05;3.03;;;22.90;99.90;;;;;;5082425;28;20034;-67
2023/09/27 10:41:32;;;;;;;5.00;2.80;;;23.00;99.90;;;;;;5091252;28;20059;-64
2023/09/27 10:43:59;;;;;;;4.20;2.78;;;23.10;99.90;;;;;;5099346;28;20028;-64
2023/09/27 10:46:25;;;;;;;3.95;2.60;;;23.20;99.90;;;;;;5101883;28;20086;-64
2023/09/27 10:49:00;;;;;;;4.47;3.05;;;23.30;99.90;;;;;;5111023;28;20429;-65
2023/09/27 10:51:26;;;;;;;6.03;2.97;;;23.40;99.90;;;;;;5097431;28;20499;-66
2023/09/27 10:53:55;;;;;;;6.35;3.08;;;23.40;99.90;;;;;;5105901;28;20095;-65
2023/09/27 10:56:21;;;;;;;4.85;2.50;;;23.60;99.90;;;;;;5106928;28;20027;-65
2023/09/27 10:58:49;;;;;;;4.10;2.88;;;23.70;99.90;;;;;;5108973;28;20035;-65
2023/09/27 11:01:22;;;;;;;3.33;2.42;;;23.80;99.90;;;;;;5099084;28;20028;-69
2023/09/27 11:03:56;;;;;;;2.90;2.30;;;23.90;99.90;;;;;;5108615;28;20104;-65
2023/09/27 11:06:21;;;;;;;3.88;2.85;;;23.90;99.90;;;;;;5108120;28;20489;-65
2023/09/27 11:08:47;;;;;;;3.75;2.55;;;24.10;99.90;;;;;;5089616;28;20032;-66
2023/09/27 11:11:13;;;;;;;5.60;2.42;;;24.20;99.90;;;;;;5089902;28;20451;-67
2023/09/27 11:13:45;;;;;;;2.83;2.00;;;24.20;99.90;;;;;;5093616;28;20035;-65
2023/09/27 11:16:14;;;;;;;4.28;3.03;;;24.40;99.90;;;;;;5097979;28;20039;-65
2023/09/27 11:18:45;;;;;;;5.75;2.60;;;24.50;99.90;;;;;;5099974;28;20028;-65
2023/09/27 11:21:12;;;;;;;3.72;3.05;;;24.60;99.90;;;;;;5089370;28;20373;-65
2023/09/27 11:24:03;;;;;;;3.17;2.42;;;24.60;99.90;;;;;;5111841;28;20787;-65
2023/09/27 11:26:31;;;;;;;4.53;2.97;;;24.80;99.90;;;;;;5097229;28;20462;-66
2023/09/27 11:29:02;;;;;;;4.65;2.60;;;25.00;99.90;;;;;;5093309;28;20074;-66
2023/09/27 11:31:30;;;;;;;3.25;2.60;;;25.10;99.90;;;;;;5100747;28;20042;-65
2023/09/27 11:34:21;;;;;;;5.18;2.25;;;25.30;97.70;;;;;;5109954;28;20119;-65
2023/09/27 11:36:49;;;;;;;5.28;2.53;;;25.60;96.60;;;;;;5094916;28;20093;-66
2023/09/27 11:39:15;;;;;;;3.45;2.08;;;25.90;99.60;;;;;;5098136;28;20028;-70
2023/09/27 11:41:42;;;;;;;3.60;1.88;;;26.10;98.40;;;;;;5107790;28;20028;-65
2023/09/27 11:44:21;;;;;;;4.03;2.47;;;26.20;97.70;;;;;;5098915;28;20031;-64
2023/09/27 11:46:51;;;;;;;3.80;2.22;;;26.20;96.90;;;;;;5068594;28;20048;-65
2023/09/27 11:49:18;;;;;;;4.72;2.33;;;26.30;94.60;;;;;;5078574;28;20039;-69
2023/09/27 11:51:44;;;;;;;6.25;2.53;;;26.60;99.90;;;;;;5091629;28;20099;-64
2023/09/27 11:54:13;;;;;;;5.68;2.58;;;26.80;99.90;;;;;;5078164;28;20530;-63
2023/09/27 11:56:40;;;;;;;3.30;2.27;;;27.10;98.20;;;;;;5072188;28;20067;-64
2023/09/27 11:59:06;;;;;;;3.03;2.03;;;27.30;98.90;;;;;;5086658;28;20055;-65
2023/09/27 12:01:32;;;;;;;3.78;2.15;;;27.50;99.80;;;;;;5075862;28;20017;-64
2023/09/27 12:03:58;;;;;;;5.97;2.35;;;27.50;98.10;;;;;;5069692;28;20418;-64
2023/09/27 12:06:25;;;;;;;3.95;2.25;;;27.80;94.10;;;;;;5082495;28;20024;-67
2023/09/27 12:08:51;;;;;;;2.97;2.08;;;28.00;93.40;;;;;;5083041;28;20039;-64
2023/09/27 12:11:17;;;;;;;2.67;2.13;;;28.00;92.60;;;;;;5087540;28;20036;-69
2023/09/27 12:13:42;;;;;;;6.93;2.00;;;28.10;92.00;;;;;;5078462;28;20020;-64
2023/09/27 12:16:08;;;;;;;4.90;2.20;;;28.40;91.80;;;;;;5078513;28;20232;-66
2023/09/27 12:18:34;;;;;;;4.43;1.88;;;28.60;91.70;;;;;;5086553;28;20052;-64
2023/09/27 12:21:00;;;;;;;2.80;1.90;;;28.70;99.90;;;;;;5072346;28;20114;-64
2023/09/27 12:23:26;;;;;;;2.45;2.25;;;28.90;99.70;;;;;;5076101;28;20040;-64
2023/09/27 12:25:52;;;;;;;3.58;2.42;;;29.10;99.20;;;;;;5087075;28;20056;-63
2023/09/27 12:28:19;;;;;;;4.40;2.53;;;29.30;98.80;;;;;;5076814;28;20408;-68
2023/09/27 12:30:45;;;;;;;3.60;2.20;;;29.50;96.00;;;;;;5060465;28;20132;-64
2023/09/27 12:33:12;;;;;;;2.67;1.92;;;29.50;96.00;;;;;;5080871;28;20524;-64
2023/09/27 12:35:37;;;;;;;3.53;2.30;;;29.60;95.90;;;;;;5078005;28;20040;-64
2023/09/27 12:38:06;;;;;;;4.38;2.40;;;29.50;96.20;;;;;;5076528;28;20024;-65
2023/09/27 12:40:32;;;;;;;3.92;2.13;;;29.60;95.50;;;;;;5075747;28;20043;-65
2023/09/27 12:42:59;;;;;;;2.78;2.00;;;29.50;95.70;;;;;;5077687;28;20524;-65
2023/09/27 12:45:24;;;;;;;3.88;2.15;;;29.60;95.40;;;;;;5071182;28;20104;-65
2023/09/27 12:47:52;;;;;;;4.15;2.20;;;29.80;95.10;;;;;;5061434;28;20147;-65
2023/09/27 12:50:23;;;;;;;2.78;2.25;;;30.00;94.90;;;;;;5075705;28;20033;-65
2023/09/27 12:52:50;;;;;;;5.95;2.10;;;30.10;94.60;;;;;;5067431;28;20050;-65
2023/09/27 12:55:15;;;;;;;4.72;2.53;;;30.20;94.10;;;;;;5082437;28;20078;-70
2023/09/27 12:57:41;;;;;;;3.80;1.70;;;30.10;94.20;;;;;;5080721;28;20481;-64
2023/09/27 13:00:09;;;;;;;3.60;1.95;;;30.10;94.10;;;;;;5067194;28;20041;-68
2023/09/27 13:02:34;;;;;;;3.03;1.80;;;30.10;97.30;;;;;;5074765;28;20028;-69
2023/09/27 13:05:01;;;;;;;2.92;2.08;;;30.20;97.40;;;;;;5080477;28;20028;-68
2023/09/27 13:07:29;;;;;;;2.00;1.80;;;30.20;97.40;;;;;;5075679;28;20091;-68
2023/09/27 13:09:55;;;;;;;2.20;1.80;;;30.10;97.20;;;;;;5067009;28;20036;-70
2023/09/27 13:12:21;;;;;;;2.30;1.55;;;29.90;97.30;;;;;;5069689;28;20029;-69
2023/09/27 13:14:46;;;;;;;1.38;1.20;;;29.90;97.20;;;;;;5062920;28;20029;-68
2023/09/27 13:17:12;;;;;;;5.28;1.70;;;29.90;97.20;;;;;;5082203;28;20035;-68
2023/09/27 13:19:38;;;;;;;5.53;1.67;;;30.00;97.20;;;;;;5056463;28;20028;-69
2023/09/27 13:22:04;;;;;;;3.78;1.70;;;30.20;97.20;;;;;;5076088;28;20141;-68